Date,TemperatureHighF,TemperatureAvgF,TemperatureLowF,DewpointHighF,DewpointAvgF,DewpointLowF,HumidityHigh,HumidityAvg,HumidityLow,PressureMaxIn,PressureMinIn,WindSpeedMaxMPH,WindSpeedAvgMPH,GustSpeedMaxMPH,PrecipitationSumIn
2013-1-1,31.5,23.3,11.7,30.0,21.1,10.0,96,91,84,30.21,30.05,4,1,7,0.00
2013-1-2,22.7,12.0,1.5,11.0,6.2,-1.0,93,79,50,30.30,30.18,3,0,3,0.00
2013-1-3,30.3,22.0,10.7,26.0,16.9,3.0,89,80,67,30.34,30.23,5,1,9,0.00
2013-1-4,30.1,22.2,13.6,22.0,17.5,12.0,93,82,72,30.36,30.30,5,1,10,0.00
2013-1-5,38.9,28.1,17.8,31.0,24.7,16.0,95,87,66,30.35,30.12,5,1,8,0.08
2013-1-6,35.2,30.3,24.6,32.0,27.0,22.0,91,87,84,30.37,30.01,8,2,14,0.03
2013-1-7,38.5,26.0,14.3,29.0,22.2,13.0,95,86,66,30.46,30.23,8,1,14,0.02
2013-1-8,44.9,33.0,22.0,32.0,27.1,20.0,93,79,57,30.28,30.19,5,1,8,0.06
2013-1-9,46.9,40.2,31.9,39.0,35.3,29.0,94,83,69,30.50,30.16,5,1,11,0.06
2013-1-10,43.7,35.9,27.4,42.0,31.5,24.0,95,84,70,30.51,30.03,6,2,11,0.10
2013-1-11,59.0,52.5,44.2,53.0,49.3,42.0,96,89,74,30.02,29.81,12,2,12,1.04
2013-1-12,64.0,54.5,47.2,55.0,51.3,45.0,96,89,72,29.95,29.69,6,1,10,1.82
2013-1-13,54.1,35.4,21.7,53.0,34.3,20.0,96,95,90,30.21,29.65,12,3,19,1.56
2013-1-14,21.8,19.3,15.8,20.0,16.7,13.0,93,89,84,30.49,30.21,5,1,8,0.00
2013-1-15,29.3,24.0,18.1,23.0,20.0,16.0,93,85,74,30.44,30.12,6,1,11,0.00
2013-1-16,34.7,28.3,21.2,26.0,23.3,20.0,95,82,64,30.13,29.97,7,1,10,0.00
2013-1-17,37.2,30.2,20.8,32.0,25.1,17.0,94,81,68,30.43,30.10,8,1,13,0.00
2013-1-18,40.1,29.7,18.0,26.0,20.4,16.0,93,71,46,30.50,30.13,11,3,17,0.00
2013-1-19,51.0,43.0,37.5,38.0,31.2,26.0,79,64,55,30.14,29.85,13,4,17,0.00
2013-1-20,42.0,25.7,20.3,36.0,16.9,13.0,80,69,60,30.27,29.89,9,3,23,0.00
2013-1-21,21.3,14.7,7.6,14.0,7.3,-1.0,86,73,61,30.30,30.16,14,3,17,0.00
2013-1-22,16.6,9.3,3.2,3.0,0.8,-1.0,82,69,52,30.44,30.31,7,2,12,0.00
2013-1-23,22.3,17.3,7.2,15.0,7.4,2.0,81,66,52,30.40,30.14,6,1,14,0.00
2013-1-24,21.7,17.8,11.4,13.0,9.0,3.0,89,70,44,30.64,30.21,6,2,14,0.00
2013-1-25,26.6,21.9,17.3,20.0,15.6,9.0,91,77,62,30.43,30.06,6,1,12,0.00
2013-1-26,29.8,21.6,15.9,20.0,16.2,12.0,90,80,66,30.45,30.13,4,1,8,0.02
2013-1-27,37.1,27.3,17.4,36.0,23.3,15.0,95,85,75,30.45,30.07,8,2,11,0.30
2013-1-28,51.7,47.7,37.6,51.0,46.3,36.0,96,95,91,30.10,29.95,10,3,15,0.17
2013-1-29,63.6,58.0,51.9,59.0,55.4,51.0,96,91,85,29.96,29.36,14,4,23,0.01
2013-1-30,64.1,45.2,26.9,60.0,43.2,24.0,96,92,84,29.59,29.23,17,4,26,0.94
2013-1-31,26.6,21.1,8.7,23.0,16.7,3.0,91,83,75,30.14,29.60,12,4,24,0.00
2013-2-1,17.3,10.4,3.9,10.0,4.6,-1.0,85,77,65,30.44,30.15,14,2,17,0.00
2013-2-2,27.4,22.2,16.2,24.0,19.0,10.0,92,87,77,30.31,30.03,7,2,13,0.00
2013-2-3,24.5,17.5,8.7,21.0,13.8,6.0,90,85,80,30.12,29.99,16,1,16,0.00
2013-2-4,39.3,28.1,19.6,33.0,23.2,15.0,90,82,70,30.12,29.81,5,1,12,0.01
2013-2-5,34.9,29.0,20.4,32.0,25.7,19.0,95,87,77,30.05,29.84,7,1,10,0.00
2013-2-6,39.3,31.6,28.4,29.0,25.4,22.0,91,79,60,30.27,30.05,9,1,11,0.00
2013-2-7,55.5,39.7,28.2,42.0,33.0,26.0,95,79,44,30.19,29.81,4,1,8,0.15
2013-2-8,39.5,32.9,29.4,38.0,29.8,24.0,95,88,79,30.36,29.82,11,4,18,0.00
2013-2-9,39.3,29.8,20.3,28.0,24.2,19.0,96,81,63,30.43,30.18,7,1,10,0.00
2013-2-10,50.3,41.4,31.4,48.0,35.9,24.0,94,81,68,30.18,29.68,15,3,21,0.07
2013-2-11,50.8,38.8,30.5,49.0,32.7,27.0,93,79,70,30.03,29.67,15,3,21,0.00
2013-2-12,42.5,32.4,27.0,33.0,27.8,24.0,93,83,67,30.14,29.95,7,1,11,0.00
2013-2-13,45.3,33.1,25.4,32.0,27.7,24.0,94,82,58,29.95,29.78,5,1,7,0.00
2013-2-14,48.4,38.6,32.3,39.0,34.2,30.0,94,84,70,29.99,29.78,11,3,17,0.00
2013-2-15,35.0,29.4,20.3,31.0,26.3,17.0,94,88,74,30.18,29.98,6,1,12,0.02
2013-2-16,23.4,20.8,18.5,19.0,15.0,12.0,92,79,66,30.17,30.11,7,2,14,0.00
2013-2-17,32.9,20.7,7.8,15.0,11.0,5.0,90,68,39,30.27,30.16,5,1,7,0.00
2013-2-18,57.5,41.1,25.0,44.0,30.6,15.0,91,67,47,30.16,29.56,12,5,25,0.18
2013-2-19,45.4,25.7,21.0,44.0,21.1,14.0,94,82,71,30.14,29.55,12,4,20,0.08
2013-2-20,25.4,18.5,10.4,17.0,12.6,6.0,85,77,68,30.36,30.14,10,3,16,0.00
2013-2-21,29.5,24.3,17.1,25.0,19.9,14.0,92,83,74,30.38,30.03,9,3,16,0.00
2013-2-22,35.8,32.5,27.4,34.0,30.8,25.0,96,93,88,30.03,29.87,6,2,11,0.05
2013-2-23,35.7,28.5,23.3,28.0,23.9,21.0,91,83,69,30.01,29.94,7,1,9,0.03
2013-2-24,38.7,28.7,18.6,30.0,24.0,17.0,95,83,68,30.16,30.00,6,1,7,0.05
2013-2-25,43.7,33.7,21.9,31.0,26.8,20.0,94,77,58,30.18,29.90,10,2,12,0.00
2013-2-26,40.2,35.1,32.1,39.0,32.7,28.0,96,91,79,29.89,29.39,18,3,18,0.45
2013-2-27,40.4,34.4,31.2,39.0,32.8,30.0,96,94,90,29.68,29.46,6,2,13,0.03
2013-2-28,37.6,33.4,31.3,35.0,31.7,30.0,95,93,89,29.99,29.67,8,3,15,0.04
2013-3-1,33.3,31.4,29.4,31.0,29.1,26.0,96,91,84,30.08,29.96,5,2,9,0.00
2013-3-2,30.8,27.9,25.2,26.0,23.0,20.0,90,82,68,30.13,30.08,7,2,11,0.00
2013-3-3,32.7,27.1,21.1,24.0,21.6,19.0,92,80,64,30.13,30.07,7,2,11,0.01
2013-3-4,37.9,29.3,16.9,30.0,23.8,16.0,95,81,58,30.15,29.98,5,1,9,0.01
2013-3-5,35.6,33.2,27.3,33.0,30.9,26.0,96,91,84,30.00,29.66,5,2,14,0.06
2013-3-6,33.4,29.2,26.2,30.0,27.6,25.0,96,93,86,30.29,29.77,6,3,12,0.02
2013-3-7,37.1,31.3,26.0,31.0,27.4,24.0,94,86,68,30.42,30.28,5,1,6,0.21
2013-3-8,41.5,31.7,20.8,29.0,25.2,19.0,95,78,57,30.50,30.39,3,1,7,0.14
2013-3-9,50.7,42.1,30.4,39.0,32.8,26.0,85,71,58,30.38,29.95,6,2,11,0.00
2013-3-10,66.5,56.9,48.8,45.0,40.1,36.0,65,55,35,29.95,29.70,12,3,15,0.00
2013-3-11,59.1,45.5,32.9,49.0,42.0,31.0,95,88,57,29.84,29.58,8,2,13,0.17
2013-3-12,42.3,34.5,30.6,32.0,29.2,26.0,94,82,60,30.04,29.84,8,2,13,0.00
2013-3-13,32.6,28.0,24.3,30.0,23.1,20.0,92,82,67,30.36,30.04,11,3,16,0.00
2013-3-14,42.6,30.1,19.1,31.0,22.7,17.0,93,76,45,30.40,30.18,4,1,7,0.01
2013-3-15,50.8,39.0,28.8,41.0,34.4,28.0,96,84,66,30.17,29.78,6,1,8,0.00
2013-3-16,44.3,39.1,32.5,41.0,36.7,30.0,95,91,85,30.05,29.61,9,3,15,0.01
2013-3-17,37.2,32.4,29.5,30.0,26.8,24.0,89,80,71,30.17,29.99,8,4,14,0.00
2013-3-18,41.7,35.5,31.7,40.0,33.9,29.0,96,94,87,29.99,29.59,7,2,14,0.14
2013-3-19,39.8,31.0,24.3,29.0,21.3,18.0,87,69,47,30.11,29.84,9,3,17,0.00
2013-3-20,30.4,26.4,22.3,22.0,17.0,12.0,82,68,54,30.11,30.02,12,3,19,0.00
2013-3-21,34.7,24.9,15.1,18.0,15.0,11.0,87,68,46,30.07,30.00,8,2,12,0.00
2013-3-22,44.2,30.6,17.8,23.0,19.2,15.0,90,66,39,30.09,30.00,5,1,8,0.00
2013-3-23,47.0,37.1,29.2,29.0,24.5,21.0,77,62,46,30.09,29.93,5,1,9,0.00
2013-3-24,33.9,31.1,28.1,30.0,28.0,26.0,95,88,76,29.93,29.47,10,4,24,0.04
2013-3-25,34.9,30.7,27.3,33.0,28.6,26.0,96,92,81,30.01,29.52,11,5,16,0.15
2013-3-26,39.1,33.3,29.5,31.0,28.6,27.0,93,83,66,30.26,30.01,9,3,13,0.02
2013-3-27,42.5,33.2,24.6,32.0,26.5,23.0,93,77,56,30.34,30.25,8,1,9,0.00
2013-3-28,47.7,36.0,26.4,32.0,27.0,23.0,88,72,49,30.38,30.30,4,1,7,0.00
2013-3-29,54.5,41.2,28.3,37.0,31.6,26.0,92,71,45,30.33,30.21,4,1,7,0.00
2013-3-30,58.0,45.4,30.0,38.0,33.8,28.0,94,67,41,30.23,29.91,6,1,8,0.00
2013-3-31,61.3,48.2,41.8,47.0,42.2,37.0,94,81,50,29.91,29.73,12,1,15,0.17
2013-4-1,44.7,38.1,30.8,38.0,26.5,21.0,82,64,43,30.15,29.82,9,3,13,0.00
2013-4-2,44.4,34.3,23.6,24.0,20.7,18.0,85,60,36,30.30,30.15,7,1,13,0.00
2013-4-3,47.1,35.7,24.6,25.0,19.3,15.0,73,53,35,30.45,30.28,7,1,11,0.00
2013-4-4,58.6,43.2,30.4,27.0,23.5,20.0,69,48,26,30.34,29.99,6,1,7,0.00
2013-4-5,57.1,47.1,36.7,37.0,30.1,23.0,74,53,34,30.14,29.98,7,2,11,0.00
2013-4-6,66.3,52.1,37.0,41.0,33.9,28.0,71,52,38,30.14,29.79,8,3,14,0.00
2013-4-7,62.7,59.4,56.2,48.0,44.6,40.0,69,59,45,29.88,29.75,12,3,15,0.00